Time;durP1;ratioP1;P1;durP2;ratioP2;P2;SDS_P1;SDS_P2;PMS_P1;PMS_P2;Temp;Humidity;BMP_temperature;BMP_pressure;BME280_temperature;BME280_humidity;BME280_pressure;Samples;Min_cycle;Max_cycle;Signal;HPM_P1;HPM_P2
2024/03/02 00:00:21;;;;;;;35.90;21.80;;;;;;;8.42;100.00;100045.28;6014055;23;20673;-71
2024/03/02 00:02:54;;;;;;;33.80;21.73;;;;;;;8.45;100.00;100045.38;6013133;23;20208;-71
2024/03/02 00:05:24;;;;;;;36.60;22.20;;;;;;;8.49;100.00;100050.81;5999144;23;20294;-71
2024/03/02 00:08:01;;;;;;;34.23;21.13;;;;;;;8.51;100.00;100046.75;6014130;23;20220;-71
2024/03/02 00:10:44;;;;;;;31.77;21.73;;;;;;;8.54;100.00;100043.47;6002959;23;20179;-72
2024/03/02 00:13:24;;;;;;;31.67;19.87;;;;;;;8.58;100.00;100040.94;5990980;23;20212;-72
2024/03/02 00:16:04;;;;;;;30.87;19.27;;;;;;;8.60;100.00;100036.13;6013963;23;20171;-71
2024/03/02 00:18:40;;;;;;;29.87;20.60;;;;;;;8.62;100.00;100033.94;6014197;23;20168;-71
2024/03/02 00:21:13;;;;;;;30.57;20.13;;;;;;;8.65;100.00;100033.31;6013549;23;20633;-72
2024/03/02 00:23:55;;;;;;;32.10;19.97;;;;;;;8.66;100.00;100034.84;6013441;23;20195;-71
2024/03/02 00:26:50;;;;;;;31.70;19.30;;;;;;;8.68;100.00;100037.91;6014072;23;20198;-71
2024/03/02 00:29:24;;;;;;;28.37;18.77;;;;;;;8.70;100.00;100038.38;6014201;23;20183;-71
2024/03/02 00:32:14;;;;;;;28.77;18.93;;;;;;;8.72;100.00;100041.44;6014205;23;20633;-71
2024/03/02 00:34:47;;;;;;;29.50;19.00;;;;;;;8.73;100.00;100045.59;6014057;23;20194;-71
2024/03/02 00:37:20;;;;;;;30.63;19.13;;;;;;;8.74;100.00;100041.84;6014445;23;20231;-71
2024/03/02 00:39:51;;;;;;;31.20;18.67;;;;;;;8.75;100.00;100038.91;6013973;23;20172;-71
2024/03/02 00:42:48;;;;;;;;;;;;;;;;;;;;;
2024/03/02 00:45:24;;;;;;;31.23;19.60;;;;;;;8.77;100.00;100039.38;6002720;23;20239;-72
2024/03/02 00:47:58;;;;;;;29.07;20.13;;;;;;;8.77;100.00;100034.09;6013859;23;20176;-71
2024/03/02 00:50:38;;;;;;;29.37;19.33;;;;;;;8.78;100.00;100026.97;6014257;23;20181;-71
2024/03/02 00:53:10;;;;;;;31.87;19.77;;;;;;;8.78;100.00;100037.50;6003398;23;20279;-72
2024/03/02 00:55:47;;;;;;;32.27;19.10;;;;;;;8.78;100.00;100027.75;6013102;23;20168;-71
2024/03/02 01:01:21;;;;;;;30.07;18.93;;;;;;;8.76;100.00;100027.28;6003292;23;20183;-71
2024/03/02 01:03:53;;;;;;;29.33;20.17;;;;;;;8.77;100.00;100020.16;6012645;23;20798;-72
2024/03/02 01:06:30;;;;;;;29.43;18.53;;;;;;;8.76;100.00;100024.66;6013627;23;20172;-71
2024/03/02 01:09:08;;;;;;;30.17;18.80;;;;;;;8.76;100.00;100026.53;6000117;23;20180;-71
2024/03/02 01:11:53;;;;;;;29.17;19.13;;;;;;;8.77;100.00;100034.09;6012669;23;20220;-72
2024/03/02 01:14:35;;;;;;;29.23;19.60;;;;;;;8.76;100.00;100026.53;6013491;23;20180;-72
2024/03/02 01:17:11;;;;;;;33.20;20.53;;;;;;;8.78;100.00;100026.97;6013714;23;20178;-71
2024/03/02 01:19:51;;;;;;;29.40;20.47;;;;;;;8.79;100.00;100028.50;6013833;23;20562;-72
2024/03/02 01:22:35;;;;;;;30.37;18.27;;;;;;;8.79;100.00;100021.38;6013940;23;20533;-71
2024/03/02 01:25:09;;;;;;;29.73;19.27;;;;;;;8.82;100.00;100030.47;6013144;23;20188;-71
2024/03/02 01:27:41;;;;;;;32.70;20.20;;;;;;;8.82;100.00;100018.09;6014292;23;20216;-71
2024/03/02 01:30:14;;;;;;;29.57;20.13;;;;;;;8.83;100.00;100027.53;6013073;23;20441;-71
2024/03/02 01:32:47;;;;;;;29.50;20.43;;;;;;;8.84;100.00;100029.06;6004004;23;20201;-71
2024/03/02 01:35:24;;;;;;;32.90;20.17;;;;;;;8.85;100.00;100022.69;6003403;23;20247;-71
2024/03/02 01:38:10;;;;;;;35.47;20.70;;;;;;;8.86;100.00;100018.97;6012600;23;20186;-72
2024/03/02 01:40:47;;;;;;;29.37;20.23;;;;;;;8.88;100.00;100016.00;5978666;23;20259;-71
2024/03/02 01:43:23;;;;;;;31.90;20.47;;;;;;;8.88;100.00;100019.41;6002230;23;20531;-71
2024/03/02 01:46:16;;;;;;;29.00;20.50;;;;;;;8.90;100.00;100013.84;6011128;23;20975;-72
2024/03/02 01:48:55;;;;;;;33.30;19.27;;;;;;;8.90;100.00;100013.84;6013825;23;20186;-72
2024/03/02 01:51:24;;;;;;;33.87;20.03;;;;;;;8.91;100.00;100016.13;6014748;23;20176;-72
2024/03/02 01:54:04;;;;;;;30.17;20.43;;;;;;;8.91;100.00;100016.13;6003866;23;20244;-72
2024/03/02 01:56:56;;;;;;;33.97;21.70;;;;;;;8.91;100.00;100013.47;6014748;23;20545;-72
2024/03/02 01:59:37;;;;;;;31.33;20.10;;;;;;;8.93;100.00;100015.78;6014133;23;20176;-72
2024/03/02 02:02:17;;;;;;;31.23;19.23;;;;;;;8.93;100.00;100010.53;6014396;23;20165;-72
2024/03/02 02:04:52;;;;;;;32.77;19.87;;;;;;;8.94;100.00;100012.06;6015123;23;20186;-71
2024/03/02 02:07:22;;;;;;;29.87;20.37;;;;;;;8.95;100.00;100011.00;6015199;23;20193;-72
2024/03/02 02:10:04;;;;;;;29.83;19.17;;;;;;;8.95;100.00;100014.38;6014500;23;20224;-72
2024/03/02 02:12:42;;;;;;;35.17;20.23;;;;;;;8.97;100.00;100014.06;6015015;23;20198;-72
2024/03/02 02:15:30;;;;;;;30.40;19.30;;;;;;;8.97;100.00;100014.06;6014377;23;20175;-72
2024/03/02 02:18:10;;;;;;;29.20;20.43;;;;;;;8.97;100.00;100011.41;6014538;23;20153;-71
2024/03/02 02:21:13;;;;;;;28.10;18.80;;;;;;;8.98;100.00;100011.09;6015624;23;20168;-72
2024/03/02 02:23:52;;;;;;;29.37;19.73;;;;;;;8.99;100.00;100011.84;5996151;23;20195;-72
2024/03/02 02:26:34;;;;;;;31.93;19.80;;;;;;;8.99;100.00;100002.09;6014478;23;20458;-72
2024/03/02 02:29:06;;;;;;;31.93;19.03;;;;;;;9.00;100.00;100010.78;6014145;23;20626;-72
2024/03/02 02:31:50;;;;;;;32.03;21.40;;;;;;;9.02;100.00;100005.94;6015076;23;20642;-71
2024/03/02 02:34:35;;;;;;;29.77;19.53;;;;;;;9.02;100.00;100011.97;6004021;23;20203;-72
2024/03/02 02:37:01;;;;;;;30.03;20.40;;;;;;;9.04;100.00;100007.16;6013077;23;20168;-72
2024/03/02 02:39:53;;;;;;;31.03;19.53;;;;;;;9.04;100.00;99999.25;6014209;23;20176;-71
2024/03/02 02:42:30;;;;;;;34.13;21.03;;;;;;;9.05;100.00;100005.25;6014159;23;20219;-71
2024/03/02 02:45:24;;;;;;;30.10;20.07;;;;;;;9.06;100.00;100001.56;6012709;23;20197;-72
2024/03/02 02:48:06;;;;;;;32.60;19.93;;;;;;;9.07;100.00;100005.72;6015114;23;20194;-71
2024/03/02 02:50:45;;;;;;;30.13;19.67;;;;;;;9.08;100.00;100005.41;6015357;23;20236;-71
2024/03/02 02:53:25;;;;;;;28.23;19.57;;;;;;;9.10;100.00;100005.03;5977824;23;20200;-72
2024/03/02 02:56:02;;;;;;;31.97;20.40;;;;;;;9.10;100.00;100005.03;6005026;23;20172;-71
2024/03/02 02:58:46;;;;;;;27.27;19.17;;;;;;;9.10;100.00;100005.81;6014875;23;20522;-71
2024/03/02 03:01:25;;;;;;;26.80;18.47;;;;;;;9.12;100.00;100008.88;5979230;23;20630;-71
2024/03/02 03:04:14;;;;;;;31.13;20.37;;;;;;;9.12;100.00;100002.88;6013971;23;20199;-71
2024/03/02 03:06:51;;;;;;;25.10;18.60;;;;;;;9.12;100.00;100008.88;6014390;23;20341;-71
2024/03/02 03:09:30;;;;;;;31.40;20.03;;;;;;;9.13;100.00;100002.56;6014238;23;20163;-71
2024/03/02 03:14:58;;;;;;;32.33;20.63;;;;;;;9.15;100.00;100010.09;6001128;23;20614;-72
2024/03/02 03:17:43;;;;;;;29.57;20.07;;;;;;;9.15;100.00;100002.19;6014972;23;20276;-72
2024/03/02 03:20:22;;;;;;;29.77;19.60;;;;;;;9.15;100.00;99997.72;6013643;23;20182;-72
2024/03/02 03:23:00;;;;;;;29.27;19.60;;;;;;;9.17;100.00;99997.38;6013280;23;20256;-71
2024/03/02 03:25:35;;;;;;;29.43;19.07;;;;;;;9.19;100.00;100000.44;6013750;23;20191;-71
2024/03/02 03:28:16;;;;;;;31.50;20.00;;;;;;;9.19;100.00;100003.88;6013941;23;20173;-72
2024/03/02 03:30:45;;;;;;;28.97;19.20;;;;;;;9.18;100.00;99997.06;6004381;23;20645;-72
2024/03/02 03:33:14;;;;;;;32.60;19.80;;;;;;;9.19;100.00;99997.81;6013616;23;20551;-72
2024/03/02 03:35:45;;;;;;;30.03;19.73;;;;;;;9.20;100.00;99994.84;5980245;23;20252;-71
2024/03/02 03:38:29;;;;;;;29.60;19.13;;;;;;;9.19;100.00;99995.97;6014768;23;20262;-72
2024/03/02 03:41:07;;;;;;;27.17;17.83;;;;;;;9.21;100.00;100003.53;6014495;23;20169;-71
2024/03/02 03:43:39;;;;;;;30.53;19.40;;;;;;;9.21;100.00;100003.53;6013713;23;20187;-72
2024/03/02 03:46:08;;;;;;;29.83;17.73;;;;;;;9.22;100.00;100005.06;6003883;23;20184;-71
2024/03/02 03:48:41;;;;;;;30.73;19.43;;;;;;;9.22;100.00;100005.81;6004779;23;20645;-71
2024/03/02 03:51:13;;;;;;;27.03;18.97;;;;;;;9.23;100.00;100004.75;6013185;23;20172;-71
2024/03/02 03:53:49;;;;;;;30.17;19.40;;;;;;;9.24;100.00;100003.66;6013529;23;20192;-71
2024/03/02 03:56:26;;;;;;;27.47;18.13;;;;;;;9.24;100.00;99998.38;6014002;23;20232;-72
2024/03/02 03:58:54;;;;;;;29.47;19.13;;;;;;;9.25;100.00;100002.53;6014868;23;20690;-71
2024/03/02 04:01:25;;;;;;;25.80;19.47;;;;;;;9.26;100.00;100009.34;5977719;23;20180;-71
2024/03/02 04:04:01;;;;;;;25.97;18.53;;;;;;;9.26;100.00;99992.78;6013502;23;20864;-72
2024/03/02 04:09:28;;;;;;;29.40;19.40;;;;;;;9.26;100.00;100006.69;6003782;23;20658;-71
2024/03/02 04:12:15;;;;;;;29.13;18.67;;;;;;;9.27;100.00;100012.75;6013258;23;20176;-71
2024/03/02 04:14:55;;;;;;;27.70;18.33;;;;;;;9.28;100.00;100006.38;6014475;23;20196;-71
2024/03/02 04:17:35;;;;;;;29.53;18.03;;;;;;;9.27;100.00;100013.50;6013831;23;20182;-72
2024/03/02 04:20:14;;;;;;;28.57;18.37;;;;;;;9.28;100.00;100007.16;6014483;23;20180;-72
2024/03/02 04:23:02;;;;;;;30.53;19.57;;;;;;;9.28;100.00;100015.06;6014066;23;20266;-72
2024/03/02 04:25:40;;;;;;;30.33;19.60;;;;;;;9.28;100.00;100012.44;6013698;23;20244;-71
2024/03/02 04:28:14;;;;;;;23.50;17.37;;;;;;;9.29;100.00;100019.22;6014005;23;20167;-71
2024/03/02 04:30:47;;;;;;;27.93;18.47;;;;;;;9.29;100.00;100016.59;6014046;23;20207;-72
2024/03/02 04:33:15;;;;;;;26.43;18.80;;;;;;;9.30;100.00;100022.63;6012892;23;20212;-71
2024/03/02 04:35:52;;;;;;;28.60;19.30;;;;;;;9.29;100.00;100027.13;6014129;23;20148;-72
2024/03/02 04:38:30;;;;;;;32.20;19.43;;;;;;;9.29;100.00;100024.50;6013958;23;20175;-71
2024/03/02 04:41:12;;;;;;;28.93;18.90;;;;;;;9.29;100.00;100021.88;5979369;23;20183;-71
2024/03/02 04:43:38;;;;;;;28.90;19.17;;;;;;;9.30;100.00;100027.88;6002810;23;20503;-72
2024/03/02 04:46:13;;;;;;;24.90;17.97;;;;;;;9.30;100.00;100022.63;6014120;23;20565;-72
2024/03/02 04:48:57;;;;;;;28.00;19.17;;;;;;;9.30;100.00;100031.31;6014103;23;20208;-71
2024/03/02 04:51:37;;;;;;;29.07;18.33;;;;;;;9.29;100.00;100035.03;6013544;23;20177;-72
2024/03/02 04:54:15;;;;;;;24.50;17.50;;;;;;;9.29;100.00;100035.03;6013107;23;20572;-71
2024/03/02 04:56:53;;;;;;;26.47;18.13;;;;;;;9.30;100.00;100043.69;6004270;23;20180;-72
2024/03/02 04:59:24;;;;;;;27.70;18.97;;;;;;;9.30;100.00;100047.09;6013500;23;20179;-71
2024/03/02 05:02:02;;;;;;;30.30;18.43;;;;;;;9.30;100.00;100055.00;6013694;23;20167;-71
2024/03/02 05:05:00;;;;;;;27.13;17.23;;;;;;;9.30;100.00;100049.75;6012137;23;20190;-72
2024/03/02 05:07:46;;;;;;;28.97;18.27;;;;;;;9.30;100.00;100048.97;5932324;24;20181;-72
2024/03/02 05:10:16;;;;;;;28.30;18.93;;;;;;;9.30;100.00;100057.66;6012646;23;20172;-72
2024/03/02 05:15:46;;;;;;;27.80;18.60;;;;;;;9.31;100.00;100053.16;5941719;23;20193;-71
2024/03/02 05:18:20;;;;;;;27.23;19.30;;;;;;;9.30;100.00;100060.28;6013100;23;20180;-71
2024/03/02 05:20:53;;;;;;;27.87;17.40;;;;;;;9.31;100.00;100066.34;6012985;23;20182;-72
2024/03/02 05:23:50;;;;;;;28.67;18.13;;;;;;;9.30;100.00;100062.91;6012744;23;20192;-72
2024/03/02 05:26:39;;;;;;;30.57;19.53;;;;;;;9.32;100.00;100062.59;6014772;23;20229;-72
2024/03/02 05:29:25;;;;;;;33.07;19.77;;;;;;;9.31;100.00;100061.81;5959094;23;20184;-72
2024/03/02 05:31:55;;;;;;;26.37;17.37;;;;;;;9.31;100.00;100055.78;6015521;23;20284;-72
2024/03/02 05:34:30;;;;;;;29.57;19.00;;;;;;;9.33;100.00;100064.91;6014591;23;20247;-71
2024/03/02 05:37:11;;;;;;;30.13;18.97;;;;;;;9.32;100.00;100067.88;6015494;23;20172;-71
2024/03/02 05:39:48;;;;;;;31.67;18.40;;;;;;;9.33;100.00;100062.28;5980662;23;20184;-71
2024/03/02 05:42:20;;;;;;;26.93;18.03;;;;;;;9.33;100.00;100066.75;6005325;23;20183;-72
2024/03/02 05:45:00;;;;;;;29.40;19.13;;;;;;;9.34;100.00;100070.94;6013759;23;20187;-71
2024/03/02 05:47:35;;;;;;;28.10;19.07;;;;;;;9.34;100.00;100071.69;6013976;23;20221;-72
2024/03/02 05:50:11;;;;;;;27.97;19.17;;;;;;;9.33;100.00;100074.66;6015046;23;20527;-71
2024/03/02 05:52:45;;;;;;;32.30;18.77;;;;;;;9.34;100.00;100082.25;6015552;23;20197;-72
2024/03/02 05:55:16;;;;;;;27.50;19.10;;;;;;;9.34;100.00;100078.81;6014363;23;20534;-72
2024/03/02 05:58:20;;;;;;;32.30;18.43;;;;;;;9.34;100.00;100079.59;6015069;23;20176;-71
2024/03/02 06:00:59;;;;;;;29.00;17.80;;;;;;;9.33;100.00;100085.97;5980970;23;20176;-71
2024/03/02 06:03:32;;;;;;;30.63;19.43;;;;;;;9.35;100.00;100096.16;6014619;23;20193;-71
2024/03/02 06:06:09;;;;;;;32.50;19.13;;;;;;;9.36;100.00;100093.22;6005597;23;20243;-71
2024/03/02 06:08:41;;;;;;;29.93;20.07;;;;;;;9.37;100.00;100099.25;6015478;23;20204;-72
2024/03/02 06:11:16;;;;;;;28.83;19.23;;;;;;;9.36;100.00;100101.13;6015887;23;20228;-71
2024/03/02 06:13:50;;;;;;;30.83;20.13;;;;;;;9.37;100.00;100094.75;6014284;23;20204;-72
2024/03/02 06:16:21;;;;;;;29.37;19.50;;;;;;;9.38;100.00;100095.53;6014605;23;20169;-72
2024/03/02 06:18:55;;;;;;;32.00;20.27;;;;;;;9.38;100.00;100091.00;5980725;23;20181;-72
2024/03/02 06:21:42;;;;;;;27.90;18.53;;;;;;;9.39;100.00;100100.47;6014480;23;20561;-72
2024/03/02 06:24:16;;;;;;;32.57;19.97;;;;;;;9.40;100.00;100109.13;6013993;23;20185;-72
2024/03/02 06:26:54;;;;;;;25.07;18.10;;;;;;;9.40;100.00;100106.50;5980867;23;20181;-72
2024/03/02 06:29:44;;;;;;;31.83;19.27;;;;;;;9.40;100.00;100107.28;6014634;23;20169;-72
2024/03/02 06:32:22;;;;;;;35.20;19.77;;;;;;;9.41;100.00;100113.28;6014839;23;20192;-72
2024/03/02 06:34:55;;;;;;;35.13;21.30;;;;;;;9.42;100.00;100117.50;6014931;23;20180;-72
2024/03/02 06:37:34;;;;;;;29.43;21.27;;;;;;;9.43;100.00;100121.66;6014262;23;20173;-72
2024/03/02 06:40:12;;;;;;;34.20;21.53;;;;;;;9.43;100.00;100129.56;6015167;23;20179;-71
2024/03/02 06:42:45;;;;;;;35.10;20.10;;;;;;;9.44;100.00;100134.50;6014555;23;20208;-72
2024/03/02 06:45:18;;;;;;;35.70;21.13;;;;;;;9.46;100.00;100136.81;6014354;23;20201;-72
2024/03/02 06:47:47;;;;;;;33.77;21.63;;;;;;;9.47;100.00;100138.38;6014993;23;20227;-71
2024/03/02 06:50:22;;;;;;;34.50;21.50;;;;;;;9.48;100.00;100132.00;6004938;23;20188;-71
2024/03/02 06:53:04;;;;;;;37.77;22.67;;;;;;;9.49;100.00;100136.94;6014548;23;20285;-72
2024/03/02 06:55:33;;;;;;;39.43;22.67;;;;;;;9.50;100.00;100135.84;6014019;23;20646;-72
2024/03/02 06:57:59;;;;;;;42.27;23.60;;;;;;;9.52;100.00;100135.50;5980361;23;20188;-71
2024/03/02 07:00:26;;;;;;;39.37;23.47;;;;;;;9.53;100.00;100142.31;6013409;23;20168;-72
2024/03/02 07:02:52;;;;;;;45.03;25.17;;;;;;;9.53;100.00;100143.06;6014153;23;20191;-72
2024/03/02 07:05:22;;;;;;;39.73;24.60;;;;;;;9.54;100.00;100142.00;6014254;23;20195;-71
2024/03/02 07:07:48;;;;;;;40.63;23.43;;;;;;;9.55;100.00;100148.81;6013749;23;20174;-72
2024/03/02 07:10:16;;;;;;;40.10;24.33;;;;;;;9.56;100.00;100147.69;6014311;23;20265;-72
2024/03/02 07:12:44;;;;;;;41.10;24.93;;;;;;;9.57;100.00;100154.50;6013839;23;20219;-71
2024/03/02 07:15:36;;;;;;;43.67;26.27;;;;;;;9.58;100.00;100156.03;6013885;23;20254;-71
2024/03/02 07:18:04;;;;;;;46.10;26.30;;;;;;;9.58;100.00;100150.75;6014058;23;20239;-71
2024/03/02 07:20:30;;;;;;;47.40;26.17;;;;;;;9.58;100.00;100153.41;6012625;23;20169;-71
2024/03/02 07:22:57;;;;;;;42.43;24.90;;;;;;;9.60;100.00;100153.06;6014185;23;20287;-71
2024/03/02 07:25:24;;;;;;;42.63;25.10;;;;;;;9.61;100.00;100158.03;6013857;23;20188;-72
2024/03/02 07:27:51;;;;;;;45.23;25.53;;;;;;;9.62;100.00;100159.56;6014566;23;20530;-71
2024/03/02 07:30:18;;;;;;;42.47;25.07;;;;;;;9.62;100.00;100159.56;6013592;23;20171;-72
2024/03/02 07:32:45;;;;;;;51.67;26.77;;;;;;;9.64;100.00;100161.88;6013897;23;20204;-71
2024/03/02 07:35:12;;;;;;;46.83;26.30;;;;;;;9.64;100.00;100165.25;6014220;23;20172;-71
2024/03/02 07:37:39;;;;;;;45.87;26.13;;;;;;;9.64;100.00;100160.00;6013703;23;20687;-72
2024/03/02 07:40:09;;;;;;;51.90;28.10;;;;;;;9.67;100.00;100169.09;5979303;23;20172;-72
2024/03/02 07:42:36;;;;;;;49.23;26.87;;;;;;;9.68;100.00;100165.41;6013184;23;20204;-72
2024/03/02 07:45:03;;;;;;;40.40;24.37;;;;;;;9.70;100.00;100165.81;6012158;23;20273;-72
2024/03/02 07:47:30;;;;;;;40.33;23.77;;;;;;;9.72;100.00;100171.53;6013616;23;20178;-71
2024/03/02 07:50:00;;;;;;;38.23;24.17;;;;;;;9.72;100.00;100177.59;6013765;23;20167;-71
2024/03/02 07:52:39;;;;;;;38.43;23.53;;;;;;;9.74;100.00;100179.91;6013846;23;20306;-72
2024/03/02 07:55:18;;;;;;;40.47;24.40;;;;;;;9.75;100.00;100186.69;6011101;23;20282;-72
2024/03/02 07:57:51;;;;;;;47.43;26.13;;;;;;;9.76;100.00;100199.56;6014357;23;20220;-72
2024/03/02 08:00:18;;;;;;;43.60;24.50;;;;;;;9.77;100.00;100195.81;6014266;23;20178;-72
2024/03/02 08:02:45;;;;;;;44.23;24.87;;;;;;;9.76;100.00;100199.56;5980237;23;20209;-72
2024/03/02 08:05:11;;;;;;;44.73;25.77;;;;;;;9.78;100.00;100200.00;6014838;23;20195;-72
2024/03/02 08:07:38;;;;;;;45.73;27.57;;;;;;;9.79;100.00;100198.88;6014558;23;20166;-72
2024/03/02 08:10:06;;;;;;;49.50;27.63;;;;;;;9.79;100.00;100204.16;5979996;23;20503;-72
2024/03/02 08:12:32;;;;;;;48.50;27.87;;;;;;;9.83;100.00;100206.94;6014683;23;20193;-72
2024/03/02 08:15:00;;;;;;;54.30;30.83;;;;;;;9.82;100.00;100208.78;6014054;23;20631;-72
2024/03/02 08:17:26;;;;;;;51.33;29.63;;;;;;;9.84;100.00;100211.09;6014568;23;20571;-72
2024/03/02 08:19:53;;;;;;;50.97;30.10;;;;;;;9.85;100.00;100215.28;6014481;23;20771;-72
2024/03/02 08:22:20;;;;;;;52.33;28.57;;;;;;;9.85;100.00;100216.06;6014673;23;20192;-72
2024/03/02 08:24:46;;;;;;;49.90;28.20;;;;;;;9.86;100.00;100214.94;6014194;23;20175;-72
2024/03/02 08:27:12;;;;;;;47.80;27.43;;;;;;;9.87;100.00;100210.44;6014806;23;20310;-72
2024/03/02 08:29:39;;;;;;;49.93;29.77;;;;;;;9.88;100.00;100212.00;6014389;23;20223;-72
2024/03/02 08:32:07;;;;;;;49.77;28.60;;;;;;;9.89;100.00;100209.00;6014166;23;20497;-72
2024/03/02 08:34:33;;;;;;;50.77;28.93;;;;;;;9.90;100.00;100221.13;5979473;23;20181;-72
2024/03/02 08:37:00;;;;;;;50.80;28.33;;;;;;;9.92;100.00;100226.03;6014418;23;20178;-72
2024/03/02 08:39:26;;;;;;;49.37;29.50;;;;;;;9.93;100.00;100220.44;6014300;23;20167;-72
2024/03/02 08:41:53;;;;;;;50.20;28.77;;;;;;;9.95;100.00;100217.47;6014698;23;20196;-72
2024/03/02 08:44:19;;;;;;;51.03;29.40;;;;;;;9.97;100.00;100217.91;6013547;23;20199;-72
2024/03/02 08:46:46;;;;;;;53.67;27.53;;;;;;;9.97;100.00;100218.69;5979387;23;20210;-72
2024/03/02 08:49:14;;;;;;;50.40;28.50;;;;;;;9.99;100.00;100224.41;6014513;23;20197;-72
2024/03/02 08:51:40;;;;;;;51.47;28.87;;;;;;;10.01;100.00;100219.56;6013988;23;20244;-72
2024/03/02 08:54:07;;;;;;;53.07;29.13;;;;;;;10.03;100.00;100217.38;6013236;23;20195;-72
2024/03/02 08:56:33;;;;;;;56.77;30.73;;;;;;;10.05;100.00;100220.47;6014217;23;20621;-72
2024/03/02 08:58:59;;;;;;;53.43;29.57;;;;;;;10.08;100.00;100226.94;6015841;23;20419;-72
2024/03/02 09:01:26;;;;;;;51.97;28.30;;;;;;;10.11;100.00;100235.00;6016217;23;20164;-72
2024/03/02 09:03:52;;;;;;;52.77;29.80;;;;;;;10.13;100.00;100238.06;6015685;23;20219;-72
2024/03/02 09:06:21;;;;;;;54.53;29.60;;;;;;;10.16;100.00;100239.28;6016002;23;20586;-72
2024/03/02 09:08:48;;;;;;;57.77;30.60;;;;;;;10.18;100.00;100240.47;6016004;23;20175;-72
2024/03/02 09:11:14;;;;;;;52.37;29.57;;;;;;;10.19;100.00;100242.00;6015877;23;20233;-72
2024/03/02 09:13:40;;;;;;;53.87;30.63;;;;;;;10.21;100.00;100250.38;6015547;23;20277;-72
2024/03/02 09:16:10;;;;;;;52.10;28.27;;;;;;;10.20;100.00;100251.47;6015360;23;20178;-72
2024/03/02 09:18:37;;;;;;;54.40;28.63;;;;;;;10.21;100.00;100255.66;6015549;23;20175;-72
2024/03/02 09:21:04;;;;;;;48.97;27.60;;;;;;;10.23;100.00;100253.44;6016149;23;20198;-72
2024/03/02 09:23:32;;;;;;;50.77;27.33;;;;;;;10.24;100.00;100249.72;6016178;23;20218;-72
2024/03/02 09:25:58;;;;;;;47.40;28.13;;;;;;;10.24;100.00;100255.00;6015608;23;20194;-72
2024/03/02 09:28:24;;;;;;;45.20;26.00;;;;;;;10.27;100.00;100256.19;6015734;23;20178;-72
2024/03/02 09:30:51;;;;;;;51.23;28.77;;;;;;;10.26;100.00;100254.66;6016010;23;20251;-72
2024/03/02 09:33:17;;;;;;;52.77;28.70;;;;;;;10.27;100.00;100256.19;6016028;23;20191;-72
2024/03/02 09:35:43;;;;;;;53.03;28.90;;;;;;;10.27;100.00;100251.69;6015837;23;20214;-72
2024/03/02 09:38:10;;;;;;;59.10;33.47;;;;;;;10.31;100.00;100244.63;6015899;23;20178;-72
2024/03/02 09:40:37;;;;;;;63.90;34.27;;;;;;;10.35;100.00;100253.44;5980747;23;20175;-72
2024/03/02 09:43:04;;;;;;;57.23;31.80;;;;;;;10.42;100.00;100260.81;6015889;23;20198;-72
2024/03/02 09:45:31;;;;;;;59.53;32.83;;;;;;;10.49;100.00;100256.50;6013457;23;20191;-72
2024/03/02 09:47:57;;;;;;;57.53;30.73;;;;;;;10.58;100.00;100259.81;6015797;23;20429;-72
2024/03/02 09:50:24;;;;;;;53.73;29.27;;;;;;;10.65;100.00;100259.22;6015647;23;20654;-72
2024/03/02 09:52:50;;;;;;;53.57;30.00;;;;;;;10.68;100.00;100264.63;6015125;23;20270;-72
2024/03/02 09:55:17;;;;;;;61.63;35.47;;;;;;;10.74;100.00;100265.16;6015186;23;20508;-72
2024/03/02 09:57:45;;;;;;;53.10;27.20;;;;;;;10.75;100.00;100270.13;6005779;23;20433;-72
2024/03/02 10:00:14;;;;;;;48.47;24.97;;;;;;;10.75;100.00;100264.84;6015996;23;20512;-72
2024/03/02 10:02:41;;;;;;;48.77;24.10;;;;;;;10.74;100.00;100271.22;6014556;23;20211;-72
2024/03/02 10:05:08;;;;;;;43.93;25.07;;;;;;;10.79;100.00;100264.94;5981029;23;20622;-72
2024/03/02 10:07:34;;;;;;;44.63;24.93;;;;;;;10.84;100.00;100264.69;5980144;23;20206;-72
2024/03/02 10:10:13;;;;;;;45.17;25.37;;;;;;;10.93;100.00;100250.25;6014591;23;20632;-72
2024/03/02 10:12:40;;;;;;;45.87;26.60;;;;;;;11.06;100.00;100261.53;5980551;23;20192;-72
2024/03/02 10:15:09;;;;;;;47.13;26.13;;;;;;;11.18;100.00;100249.06;6014808;23;20231;-72
2024/03/02 10:17:36;;;;;;;42.77;23.63;;;;;;;11.31;100.00;100252.41;6014701;23;20165;-72
2024/03/02 10:20:23;;;;;;;41.53;24.77;;;;;;;11.42;100.00;100251.59;6015531;23;20618;-72
2024/03/02 10:22:49;;;;;;;41.93;23.10;;;;;;;11.49;100.00;100245.72;6014962;23;20199;-72
2024/03/02 10:25:30;;;;;;;37.80;21.57;;;;;;;11.56;100.00;100251.19;6014743;23;20678;-72
2024/03/02 10:27:58;;;;;;;35.40;21.43;;;;;;;11.64;100.00;100256.34;5980055;23;20180;-72
2024/03/02 10:30:26;;;;;;;42.67;23.33;;;;;;;11.71;100.00;100248.63;6015420;23;20220;-72
2024/03/02 10:32:54;;;;;;;40.23;23.90;;;;;;;11.77;100.00;100247.25;6014889;23;20676;-72
2024/03/02 10:35:21;;;;;;;39.30;23.27;;;;;;;11.85;100.00;100250.84;5980151;23;20174;-72
2024/03/02 10:37:48;;;;;;;40.23;22.30;;;;;;;11.91;100.00;100252.13;6014334;23;20164;-72
2024/03/02 10:40:15;;;;;;;37.47;20.93;;;;;;;11.94;100.00;100248.75;6014618;23;20176;-72
2024/03/02 10:42:42;;;;;;;42.27;23.00;;;;;;;12.02;100.00;100247.84;6014062;23;20195;-72
2024/03/02 10:45:10;;;;;;;37.60;22.77;;;;;;;12.11;100.00;100254.47;5979196;23;20270;-72
2024/03/02 10:47:39;;;;;;;40.67;22.20;;;;;;;12.25;100.00;100252.16;6014401;23;20188;-72
2024/03/02 10:50:08;;;;;;;36.50;21.57;;;;;;;12.35;100.00;100251.66;6014512;23;20534;-72
2024/03/02 10:52:34;;;;;;;36.23;20.77;;;;;;;12.49;100.00;100251.19;6014664;23;20191;-72
2024/03/02 10:55:01;;;;;;;35.10;19.60;;;;;;;12.60;100.00;100246.88;6014508;23;20178;-72
2024/03/02 10:57:28;;;;;;;31.53;18.87;;;;;;;12.71;100.00;100253.94;6014396;23;20172;-72
2024/03/02 11:00:02;;;;;;;29.53;17.50;;;;;;;12.72;100.00;100250.19;6015426;23;20232;-72
2024/03/02 11:02:31;;;;;;;28.97;18.33;;;;;;;12.81;100.00;100250.75;6014809;23;20195;-72
2024/03/02 11:05:02;;;;;;;39.50;20.00;;;;;;;12.89;100.00;100249.00;6013375;23;20636;-72
2024/03/02 11:07:29;;;;;;;27.70;16.73;;;;;;;12.98;100.00;100263.63;6014797;23;20214;-72
2024/03/02 11:10:05;;;;;;;31.13;17.80;;;;;;;13.05;100.00;100260.34;5979589;23;20441;-72
2024/03/02 11:12:39;;;;;;;28.57;16.70;;;;;;;13.11;100.00;100245.69;5979218;23;20199;-72
2024/03/02 11:15:11;;;;;;;30.60;16.37;;;;;;;13.16;100.00;100253.38;6014034;23;20514;-72
2024/03/02 11:17:40;;;;;;;25.90;15.97;;;;;;;13.18;100.00;100246.59;6014107;23;20507;-72
2024/03/02 11:20:09;;;;;;;25.90;16.53;;;;;;;13.24;100.00;100236.50;5979510;23;20259;-72
2024/03/02 11:22:44;;;;;;;28.17;16.30;;;;;;;13.27;100.00;100235.78;6013574;23;20191;-72
2024/03/02 11:25:24;;;;;;;27.03;16.97;;;;;;;13.31;100.00;100231.31;6013356;23;20167;-72
2024/03/02 11:28:01;;;;;;;28.63;17.07;;;;;;;13.38;100.00;100234.84;6014258;23;20187;-72
2024/03/02 11:30:49;;;;;;;28.87;17.37;;;;;;;13.48;100.00;100226.31;6013662;23;20174;-72
2024/03/02 11:33:24;;;;;;;23.70;14.70;;;;;;;13.53;100.00;100226.03;6013419;23;20196;-72
2024/03/02 11:35:52;;;;;;;27.53;14.80;;;;;;;13.56;100.00;100232.50;6011961;23;20563;-72
2024/03/02 11:38:19;;;;;;;22.53;13.87;;;;;;;13.56;100.00;100225.31;6013784;23;20175;-72
2024/03/02 11:40:45;;;;;;;23.40;13.93;;;;;;;13.53;100.00;100219.94;6012897;23;20606;-72
2024/03/02 11:43:11;;;;;;;22.07;13.47;;;;;;;13.49;100.00;100224.41;6013500;23;20214;-72
2024/03/02 11:45:39;;;;;;;21.67;13.00;;;;;;;13.47;100.00;100224.78;6011757;23;20578;-73
2024/03/02 11:48:12;;;;;;;25.67;13.97;;;;;;;13.44;100.00;100224.72;6004734;23;20200;-73
2024/03/02 11:50:42;;;;;;;22.53;13.87;;;;;;;13.42;100.00;100225.09;6014017;23;20228;-72